createdAt,value
2023-01-10T00:10:52.720Z,0.72
2023-01-10T00:30:58.502Z,1.61
2023-01-10T00:51:04.189Z,3.54
2023-01-10T01:11:09.892Z,1.88
2023-01-10T01:31:15.883Z,1.75
2023-01-10T01:51:21.616Z,2.07
2023-01-10T02:11:27.360Z,1.87
2023-01-10T02:31:33.176Z,1.70
2023-01-10T02:51:38.951Z,1.46
2023-01-10T03:11:44.709Z,1.02
2023-01-10T03:31:50.453Z,1.13
2023-01-10T03:51:56.210Z,1.31
2023-01-10T04:12:01.972Z,1.35
2023-01-10T04:32:07.738Z,1.35
2023-01-10T04:52:13.442Z,2.02
2023-01-10T05:12:19.276Z,1.75
2023-01-10T05:32:25.028Z,2.31
2023-01-10T05:52:30.812Z,2.45
2023-01-10T06:12:36.535Z,3.13
2023-01-10T06:32:42.308Z,2.42
2023-01-10T06:52:48.050Z,7.57
2023-01-10T07:12:53.805Z,3.24
2023-01-10T07:32:59.551Z,3.14
2023-01-10T07:53:05.305Z,4.61
2023-01-10T08:13:18.382Z,4.93
2023-01-10T08:33:16.291Z,5.59
2023-01-10T08:53:22.027Z,5.04
2023-01-10T09:13:27.761Z,4.92
2023-01-10T09:33:45.760Z,4.99
2023-01-10T09:53:38.791Z,4.62
2023-01-10T10:13:44.571Z,2.25
2023-01-10T10:33:50.321Z,3.13
2023-01-10T10:53:56.060Z,4.06
2023-01-10T11:14:01.805Z,4.56
2023-01-10T11:34:07.550Z,4.77
2023-01-10T11:54:13.363Z,4.11
2023-01-10T12:14:19.144Z,3.81
2023-01-10T12:34:24.970Z,4.27
2023-01-10T12:54:30.703Z,4.09
2023-01-10T13:14:36.944Z,3.42
2023-01-10T13:34:42.716Z,3.23
2023-01-10T13:54:48.554Z,5.01
2023-01-10T14:14:54.306Z,3.77
2023-01-10T14:35:00.408Z,3.56
2023-01-10T14:55:06.152Z,3.16
2023-01-10T15:15:12.321Z,3.42
2023-01-10T15:35:23.865Z,3.85
2023-01-10T15:55:26.676Z,4.75
2023-01-10T16:15:30.109Z,10.50
2023-01-10T16:35:35.900Z,3.02
2023-01-10T16:55:41.703Z,4.66
2023-01-10T17:15:47.486Z,11.00
2023-01-10T17:35:53.225Z,6.70
2023-01-10T17:55:58.968Z,5.75
2023-01-10T18:16:04.719Z,6.35
2023-01-10T18:36:10.454Z,8.28
2023-01-10T18:56:16.197Z,12.09
2023-01-10T19:16:21.989Z,6.88
2023-01-10T19:36:27.964Z,5.69
2023-01-10T19:56:33.888Z,6.18
2023-01-10T20:16:39.700Z,12.96
2023-01-10T20:36:45.439Z,11.48
2023-01-10T20:56:51.262Z,11.31
2023-01-10T21:16:57.194Z,11.58
2023-01-10T21:37:02.985Z,15.74
2023-01-10T21:57:08.730Z,11.07
2023-01-10T22:17:14.535Z,8.01
2023-01-10T22:37:20.286Z,6.86
2023-01-10T22:57:28.597Z,5.63
2023-01-10T23:17:31.315Z,6.00
2023-01-10T23:37:37.053Z,6.07
2023-01-10T23:57:42.786Z,9.40
